Time;durP1;ratioP1;P1;durP2;ratioP2;P2;SDS_P1;SDS_P2;PMS_P1;PMS_P2;Temp;Humidity;BMP_temperature;BMP_pressure;BME280_temperature;BME280_humidity;BME280_pressure;Samples;Min_cycle;Max_cycle;Signal;HPM_P1;HPM_P2
2021/03/25 17:09:43;;;;;;;59.28;35.25;;;14.30;99.90;;;;;;5090704;27;20424;-84
2021/03/25 17:12:11;;;;;;;66.78;38.78;;;14.30;99.90;;;;;;5039612;28;20089;-84
2021/03/25 17:14:37;;;;;;;66.75;36.60;;;14.20;99.90;;;;;;5023460;28;20048;-84
2021/03/25 17:17:06;;;;;;;65.78;39.55;;;14.10;99.90;;;;;;5040278;28;20162;-85
2021/03/25 17:19:33;;;;;;;101.18;54.92;;;14.10;99.90;;;;;;5039054;28;20052;-85
2021/03/25 17:22:00;;;;;;;73.68;44.17;;;14.10;99.90;;;;;;5039667;28;20040;-87
2021/03/25 17:24:26;;;;;;;60.28;37.25;;;14.00;99.90;;;;;;5006700;28;20048;-85
2021/03/25 17:26:53;;;;;;;84.78;49.75;;;14.10;99.90;;;;;;5022876;28;20153;-85
2021/03/25 17:29:20;;;;;;;64.25;40.83;;;14.00;99.90;;;;;;5039059;28;20155;-86
2021/03/25 17:31:49;;;;;;;71.40;44.17;;;14.00;99.90;;;;;;5019085;28;20090;-85
2021/03/25 17:34:17;;;;;;;81.50;47.28;;;13.90;99.90;;;;;;5055372;28;20048;-86
2021/03/25 17:36:43;;;;;;;90.57;58.15;;;13.90;99.90;;;;;;5056128;28;20052;-85
2021/03/25 17:39:10;;;;;;;109.35;75.60;;;13.90;99.90;;;;;;5007112;28;20049;-84
2021/03/25 17:41:38;;;;;;;84.60;58.78;;;13.80;99.90;;;;;;5006812;28;20063;-84
2021/03/25 17:44:05;;;;;;;73.72;47.88;;;13.80;99.90;;;;;;5023041;28;20044;-84
2021/03/25 17:46:32;;;;;;;67.05;38.30;;;13.70;99.90;;;;;;5022695;28;20102;-85
2021/03/25 17:48:59;;;;;;;61.13;37.17;;;13.60;99.90;;;;;;5039237;28;20495;-85
2021/03/25 17:51:27;;;;;;;65.35;35.58;;;13.60;99.90;;;;;;5038971;28;20045;-86
2021/03/25 17:54:09;;;;;;;52.10;32.70;;;13.50;99.90;;;;;;5026868;28;20090;-84
2021/03/25 17:56:36;;;;;;;60.40;40.60;;;13.40;99.90;;;;;;5024240;28;20083;-83
2021/03/25 17:59:04;;;;;;;66.03;43.35;;;13.40;99.90;;;;;;5006395;28;20079;-82
2021/03/25 18:01:31;;;;;;;59.55;42.05;;;13.40;99.90;;;;;;5022225;28;20052;-82
2021/03/25 18:03:59;;;;;;;66.85;39.47;;;13.40;99.90;;;;;;5039457;28;20075;-82
2021/03/25 18:06:27;;;;;;;71.82;40.33;;;13.40;99.90;;;;;;5038782;28;20071;-85
2021/03/25 18:08:57;;;;;;;69.45;38.92;;;13.30;99.90;;;;;;5038960;28;20056;-82
2021/03/25 18:11:24;;;;;;;68.85;41.78;;;13.30;99.90;;;;;;5039100;28;20054;-81
2021/03/25 18:13:51;;;;;;;73.80;43.63;;;13.30;99.90;;;;;;5039105;28;20048;-82
2021/03/25 18:16:19;;;;;;;68.10;38.70;;;13.20;99.90;;;;;;5039036;28;20483;-87
2021/03/25 18:18:49;;;;;;;81.20;45.45;;;13.20;99.90;;;;;;5038392;28;20060;-86
2021/03/25 18:21:19;;;;;;;83.45;46.22;;;13.10;99.90;;;;;;5042626;28;20057;-84
2021/03/25 18:23:47;;;;;;;85.05;47.58;;;13.10;99.90;;;;;;5026884;28;20064;-83
2021/03/25 18:26:15;;;;;;;79.90;47.47;;;13.10;99.90;;;;;;5026917;28;20048;-84
2021/03/25 18:28:41;;;;;;;75.95;45.70;;;13.00;99.90;;;;;;5025548;28;20049;-84
2021/03/25 18:31:13;;;;;;;79.88;46.58;;;13.00;99.90;;;;;;5009433;28;20063;-84
2021/03/25 18:33:42;;;;;;;74.88;43.10;;;12.90;99.90;;;;;;5026041;28;20045;-84
2021/03/25 18:36:15;;;;;;;70.93;43.47;;;12.90;99.90;;;;;;5026111;28;20095;-84
2021/03/25 18:38:41;;;;;;;75.50;46.20;;;12.80;99.90;;;;;;5025944;28;20110;-84
2021/03/25 18:41:08;;;;;;;76.93;46.17;;;12.80;99.90;;;;;;5024938;28;20064;-84
2021/03/25 18:43:37;;;;;;;84.88;53.20;;;12.80;99.90;;;;;;5008316;28;20049;-84
2021/03/25 18:46:06;;;;;;;90.32;53.05;;;12.70;99.90;;;;;;5019522;28;20072;-78
2021/03/25 18:54:55;;;;;;;82.53;51.28;;;12.50;99.90;;;;;;4827552;29;20051;-77
2021/03/25 18:57:21;;;;;;;86.15;51.47;;;12.40;99.90;;;;;;4808591;29;20047;-76
2021/03/25 18:59:48;;;;;;;81.38;48.80;;;12.40;99.90;;;;;;4826220;29;20073;-75
2021/03/25 19:02:15;;;;;;;77.32;48.10;;;12.30;99.90;;;;;;4808728;29;20403;-76
2021/03/25 19:04:42;;;;;;;77.60;47.85;;;12.30;99.90;;;;;;4839079;29;20062;-77
2021/03/25 19:07:15;;;;;;;81.93;49.85;;;12.20;99.90;;;;;;4806645;29;20046;-78
2021/03/25 19:09:42;;;;;;;76.80;46.28;;;12.20;99.90;;;;;;4814580;29;20058;-83
2021/03/25 19:12:11;;;;;;;81.00;50.33;;;12.10;99.90;;;;;;4804614;29;20513;-80
2021/03/25 19:14:39;;;;;;;82.22;51.30;;;12.00;99.90;;;;;;4795471;29;20061;-80
2021/03/25 19:17:06;;;;;;;82.88;52.65;;;12.00;99.90;;;;;;4792133;29;20054;-80
2021/03/25 19:19:33;;;;;;;97.22;59.22;;;12.00;99.90;;;;;;4776754;29;20057;-81
2021/03/25 19:22:00;;;;;;;128.57;67.20;;;11.80;99.90;;;;;;4783038;29;20085;-83
2021/03/25 19:24:27;;;;;;;106.05;58.30;;;11.80;99.90;;;;;;4809726;29;20050;-81
2021/03/25 19:26:55;;;;;;;113.57;60.30;;;11.80;99.90;;;;;;4777231;29;20460;-81
2021/03/25 19:29:22;;;;;;;94.10;57.55;;;11.70;99.90;;;;;;4809633;29;20074;-82
2021/03/25 19:31:49;;;;;;;90.95;54.70;;;11.60;99.90;;;;;;4804532;29;20423;-82
2021/03/25 19:34:16;;;;;;;90.75;53.65;;;11.50;99.90;;;;;;4773181;29;20387;-81
2021/03/25 19:36:44;;;;;;;82.97;48.47;;;11.50;99.90;;;;;;4791804;29;20067;-82
2021/03/25 19:39:11;;;;;;;82.25;51.90;;;11.40;99.90;;;;;;4789050;29;20162;-82
2021/03/25 19:41:38;;;;;;;94.43;55.72;;;11.40;99.90;;;;;;4814354;29;20055;-82
2021/03/25 19:44:05;;;;;;;74.60;46.35;;;11.40;99.90;;;;;;4779822;29;20050;-82
2021/03/25 19:46:32;;;;;;;104.40;57.80;;;11.30;99.90;;;;;;4784196;29;20137;-82
2021/03/25 19:48:59;;;;;;;98.00;55.60;;;11.30;99.90;;;;;;4792403;29;20571;-81
2021/03/25 19:51:27;;;;;;;92.30;55.35;;;11.30;99.90;;;;;;4778280;29;20124;-81
2021/03/25 19:53:55;;;;;;;93.05;55.67;;;11.30;99.90;;;;;;4780479;29;20066;-81
2021/03/25 19:56:22;;;;;;;96.25;53.95;;;11.30;99.90;;;;;;4793680;29;20061;-81
2021/03/25 19:58:49;;;;;;;86.05;54.22;;;11.10;99.90;;;;;;4786741;29;20081;-82
2021/03/25 20:01:17;;;;;;;85.95;54.72;;;11.10;99.90;;;;;;4793493;29;20050;-81
2021/03/25 20:03:44;;;;;;;83.70;49.63;;;11.10;99.90;;;;;;4775549;29;20149;-81
2021/03/25 20:06:12;;;;;;;87.90;50.13;;;11.00;99.90;;;;;;4778064;29;20084;-81
2021/03/25 20:08:39;;;;;;;98.65;55.95;;;11.00;99.90;;;;;;4775426;29;20058;-81
2021/03/25 20:11:08;;;;;;;95.72;54.90;;;10.90;99.90;;;;;;4790557;29;20047;-80
2021/03/25 20:13:34;;;;;;;96.68;58.28;;;10.80;99.90;;;;;;4775987;29;20137;-82
2021/03/25 20:16:02;;;;;;;91.18;58.05;;;10.80;99.90;;;;;;4761219;29;20476;-81
2021/03/25 20:18:30;;;;;;;99.10;59.58;;;10.80;99.90;;;;;;4761158;29;20062;-80
2021/03/25 20:20:57;;;;;;;86.43;51.63;;;10.70;99.90;;;;;;4761226;29;20506;-80
2021/03/25 20:23:26;;;;;;;83.25;53.92;;;10.70;99.90;;;;;;4762735;29;20047;-80
2021/03/25 20:26:13;;;;;;;91.15;53.40;;;10.60;99.90;;;;;;4795909;29;20402;-82
2021/03/25 20:28:39;;;;;;;100.35;58.60;;;10.60;99.90;;;;;;4778690;29;20111;-80
2021/03/25 20:31:09;;;;;;;101.25;56.95;;;10.60;99.90;;;;;;4793995;29;20050;-80
2021/03/25 20:33:36;;;;;;;95.05;57.38;;;10.50;99.90;;;;;;4792894;29;20086;-80
2021/03/25 20:36:07;;;;;;;93.15;54.45;;;10.50;99.90;;;;;;4793370;29;20047;-80
2021/03/25 20:38:33;;;;;;;87.80;52.92;;;10.50;99.90;;;;;;4779035;29;20455;-80
2021/03/25 20:41:00;;;;;;;78.43;48.50;;;10.40;99.90;;;;;;4778250;29;20148;-80
2021/03/25 20:43:28;;;;;;;82.43;48.25;;;10.40;99.90;;;;;;4778344;29;20088;-80
2021/03/25 20:45:56;;;;;;;99.63;56.03;;;10.40;99.90;;;;;;4791509;29;20056;-81
2021/03/25 20:48:24;;;;;;;89.45;51.60;;;10.30;99.90;;;;;;4807177;29;20050;-80
2021/03/25 20:50:51;;;;;;;102.72;60.35;;;10.30;99.90;;;;;;4774789;29;20054;-81
2021/03/25 20:53:19;;;;;;;104.95;60.33;;;10.20;99.90;;;;;;4817481;29;20497;-81
2021/03/25 20:55:46;;;;;;;93.43;54.30;;;10.10;99.90;;;;;;4792418;29;20104;-82
2021/03/25 20:58:13;;;;;;;97.45;54.58;;;10.00;99.90;;;;;;4770753;29;20050;-82
2021/03/25 21:00:42;;;;;;;98.30;58.58;;;9.90;99.90;;;;;;4772684;29;20058;-81
2021/03/25 21:03:12;;;;;;;98.05;57.50;;;9.90;99.90;;;;;;4781922;29;20057;-81
2021/03/25 21:05:41;;;;;;;101.03;60.33;;;9.80;99.90;;;;;;4800517;29;20058;-81
2021/03/25 21:08:10;;;;;;;122.88;67.00;;;9.90;99.90;;;;;;4832260;29;20054;-81
2021/03/25 21:10:37;;;;;;;111.47;63.42;;;9.80;99.90;;;;;;4791048;29;20076;-80
2021/03/25 21:13:04;;;;;;;122.78;67.38;;;9.70;99.90;;;;;;4774353;29;20151;-81
2021/03/25 21:15:31;;;;;;;127.32;71.25;;;9.70;99.90;;;;;;4791566;29;20054;-80
2021/03/25 21:17:58;;;;;;;112.88;64.88;;;9.60;99.90;;;;;;4772937;29;20047;-81
2021/03/25 21:20:26;;;;;;;137.85;73.72;;;9.50;99.90;;;;;;4814244;29;20046;-80
2021/03/25 21:22:52;;;;;;;144.25;74.63;;;9.40;99.90;;;;;;4782152;29;20059;-81
2021/03/25 21:25:22;;;;;;;130.10;69.57;;;9.30;99.90;;;;;;4787712;29;20057;-81
2021/03/25 21:27:52;;;;;;;127.32;69.85;;;9.20;99.90;;;;;;4791666;29;20060;-81
2021/03/25 21:30:20;;;;;;;119.80;69.57;;;9.10;99.90;;;;;;4762054;29;20054;-81
2021/03/25 21:32:47;;;;;;;119.25;67.65;;;9.00;99.90;;;;;;4801577;29;20053;-80
2021/03/25 21:35:17;;;;;;;126.68;71.97;;;9.00;99.90;;;;;;4792874;29;20049;-81
2021/03/25 21:37:44;;;;;;;138.68;74.88;;;8.90;99.90;;;;;;4794339;29;20149;-81
2021/03/25 21:40:16;;;;;;;124.22;68.78;;;8.90;99.90;;;;;;4769964;29;20051;-81
2021/03/25 21:42:43;;;;;;;130.35;74.78;;;8.90;99.90;;;;;;4809404;29;20074;-81
2021/03/25 21:45:12;;;;;;;132.00;73.28;;;8.90;99.90;;;;;;4805482;29;20051;-80
2021/03/25 21:47:38;;;;;;;140.50;76.97;;;8.90;99.90;;;;;;4790453;29;20134;-86
2021/03/25 21:50:06;;;;;;;137.40;73.32;;;8.90;99.90;;;;;;4814700;29;20054;-81
2021/03/25 21:52:32;;;;;;;142.80;78.65;;;8.90;99.90;;;;;;4776602;29;20228;-81
2021/03/25 21:54:59;;;;;;;133.75;75.45;;;8.90;99.90;;;;;;4777114;29;20050;-81
2021/03/25 21:57:26;;;;;;;133.82;73.15;;;8.80;99.90;;;;;;4794957;29;20159;-81
2021/03/25 21:59:53;;;;;;;126.90;70.72;;;8.90;99.90;;;;;;4780019;29;20066;-82
2021/03/25 22:02:20;;;;;;;128.88;72.55;;;8.80;99.90;;;;;;4796800;29;20112;-81
2021/03/25 22:04:46;;;;;;;129.90;71.13;;;8.90;99.90;;;;;;4777355;29;20054;-81
2021/03/25 22:07:13;;;;;;;128.85;71.55;;;8.80;99.90;;;;;;4793622;29;20158;-80
2021/03/25 22:09:40;;;;;;;131.10;70.75;;;8.80;99.90;;;;;;4801380;29;20058;-81
2021/03/25 22:12:09;;;;;;;131.20;70.32;;;8.80;99.90;;;;;;4779948;29;20463;-81
2021/03/25 22:14:35;;;;;;;132.57;70.97;;;8.80;99.90;;;;;;4793907;29;20057;-82
2021/03/25 22:17:04;;;;;;;116.93;64.50;;;8.80;99.90;;;;;;4775608;29;20050;-81
2021/03/25 22:19:31;;;;;;;139.70;77.20;;;8.70;99.90;;;;;;4815037;29;20102;-81
2021/03/25 22:21:57;;;;;;;141.65;76.90;;;8.70;99.90;;;;;;4787111;29;20077;-81
2021/03/25 22:24:26;;;;;;;158.13;79.78;;;8.70;99.90;;;;;;4813672;29;20139;-84
2021/03/25 22:26:53;;;;;;;125.95;68.82;;;8.70;99.90;;;;;;4792899;29;20729;-81
2021/03/25 22:29:20;;;;;;;139.50;78.15;;;8.70;99.90;;;;;;4794587;29;20063;-80
2021/03/25 22:31:48;;;;;;;153.57;80.45;;;8.60;99.90;;;;;;4774827;29;20050;-81
2021/03/25 22:34:15;;;;;;;145.25;80.65;;;8.60;99.90;;;;;;4789260;29;20543;-81
2021/03/25 22:36:42;;;;;;;145.30;79.63;;;8.60;99.90;;;;;;4794470;29;20054;-81
2021/03/25 22:39:09;;;;;;;142.50;79.32;;;8.50;99.90;;;;;;4806163;29;20055;-81
2021/03/25 22:41:36;;;;;;;132.77;74.25;;;8.50;99.90;;;;;;4792179;29;20054;-80
2021/03/25 22:44:04;;;;;;;146.13;76.78;;;8.40;99.90;;;;;;4784145;29;20057;-80
2021/03/25 22:46:32;;;;;;;144.05;77.35;;;8.40;99.90;;;;;;4825702;29;20134;-81
2021/03/25 22:48:59;;;;;;;133.13;71.40;;;8.30;99.90;;;;;;4803608;29;20058;-81
2021/03/25 22:51:31;;;;;;;145.43;77.03;;;8.30;99.90;;;;;;4809353;29;20469;-85
2021/03/25 22:53:58;;;;;;;138.63;78.28;;;8.30;99.90;;;;;;4772582;29;20062;-81
2021/03/25 22:56:24;;;;;;;143.20;78.03;;;8.20;99.90;;;;;;4771892;29;20118;-82
2021/03/25 22:58:51;;;;;;;148.52;79.75;;;8.20;99.90;;;;;;4808757;29;20493;-81
2021/03/25 23:01:24;;;;;;;147.95;82.85;;;8.20;99.90;;;;;;4794851;29;20133;-81
2021/03/25 23:04:20;;;;;;;149.07;82.28;;;8.10;99.90;;;;;;4795982;29;20107;-81
2021/03/25 23:06:47;;;;;;;153.27;83.28;;;8.00;99.90;;;;;;4796007;29;20599;-81
2021/03/25 23:09:38;;;;;;;146.73;79.90;;;7.90;99.90;;;;;;4779519;29;20137;-81
2021/03/25 23:12:15;;;;;;;147.43;80.50;;;7.90;99.90;;;;;;4796372;29;20422;-82
2021/03/25 23:14:41;;;;;;;148.32;82.40;;;7.80;99.90;;;;;;4792774;29;20058;-81
2021/03/25 23:17:13;;;;;;;131.00;73.95;;;7.80;99.90;;;;;;4777084;29;20050;-81
2021/03/25 23:19:40;;;;;;;143.55;80.25;;;7.70;99.90;;;;;;4791650;29;20059;-81
2021/03/25 23:22:22;;;;;;;146.60;80.82;;;7.70;99.90;;;;;;4781666;29;20463;-80
2021/03/25 23:24:50;;;;;;;139.23;80.53;;;7.70;99.90;;;;;;4823589;29;20115;-81
2021/03/25 23:27:18;;;;;;;156.48;84.30;;;7.60;99.90;;;;;;4794830;29;20054;-80
2021/03/25 23:29:45;;;;;;;154.68;83.10;;;7.60;99.90;;;;;;4809411;29;20068;-80
2021/03/25 23:32:18;;;;;;;120.10;68.03;;;7.50;99.90;;;;;;4824406;29;20062;-80
2021/03/25 23:34:46;;;;;;;131.82;71.22;;;7.50;99.90;;;;;;4793114;29;20076;-81
2021/03/25 23:37:12;;;;;;;127.40;70.22;;;7.50;99.90;;;;;;4779140;29;20066;-81
2021/03/25 23:39:39;;;;;;;135.20;75.93;;;7.50;99.90;;;;;;4796310;29;20149;-80
2021/03/25 23:42:19;;;;;;;123.78;68.70;;;7.40;99.90;;;;;;4827432;29;20053;-80
2021/03/25 23:44:46;;;;;;;129.50;73.05;;;7.40;99.90;;;;;;4826008;29;20061;-80
2021/03/25 23:47:13;;;;;;;141.13;76.97;;;7.40;99.90;;;;;;4826023;29;20053;-81
2021/03/25 23:49:40;;;;;;;142.82;78.45;;;7.40;99.90;;;;;;4780094;29;20465;-80
2021/03/25 23:52:13;;;;;;;153.82;84.43;;;7.40;99.90;;;;;;4791108;29;20050;-80
2021/03/25 23:54:40;;;;;;;119.88;68.63;;;7.40;99.90;;;;;;4801421;29;20509;-81
2021/03/25 23:57:09;;;;;;;125.55;67.25;;;7.30;99.90;;;;;;4812099;29;20174;-81
2021/03/25 23:59:36;;;;;;;147.57;79.43;;;7.30;99.90;;;;;;4797210;29;20057;-81
